createdAt,value
2019-02-24T00:02:02.461Z,21.35
2019-02-24T00:04:30.677Z,20.77
2019-02-24T00:06:58.674Z,19.15
2019-02-24T00:09:46.184Z,22.65
2019-02-24T00:12:27.010Z,22.87
2019-02-24T00:15:14.501Z,28.00
2019-02-24T00:17:55.177Z,23.87
2019-02-24T00:20:23.258Z,24.80
2019-02-24T00:23:04.435Z,23.38
2019-02-24T00:25:32.503Z,22.80
2019-02-24T00:28:06.985Z,21.73
2019-02-24T00:30:50.085Z,25.12
2019-02-24T00:33:30.749Z,26.70
2019-02-24T00:36:19.172Z,21.93
2019-02-24T00:38:59.804Z,25.95
2019-02-24T00:41:47.505Z,22.85
2019-02-24T00:44:28.318Z,20.70
2019-02-24T00:47:08.625Z,22.75
2019-02-24T00:49:56.208Z,24.27
2019-02-24T00:52:36.995Z,21.93
2019-02-24T00:55:25.405Z,20.95
2019-02-24T00:57:53.299Z,23.65
2019-02-24T01:00:21.191Z,23.30
2019-02-24T01:03:03.374Z,28.05
2019-02-24T01:05:51.878Z,25.77
2019-02-24T01:08:32.455Z,20.05
2019-02-24T01:11:19.908Z,23.45
2019-02-24T01:13:54.271Z,23.98
2019-02-24T01:16:24.188Z,23.35
2019-02-24T01:18:54.674Z,25.40
2019-02-24T01:21:25.232Z,20.10
2019-02-24T01:23:55.181Z,23.18
2019-02-24T01:26:27.476Z,22.05
2019-02-24T01:28:59.249Z,25.00
2019-02-24T01:31:28.612Z,21.82
2019-02-24T01:34:02.290Z,19.55
2019-02-24T01:36:31.185Z,22.52
2019-02-24T01:38:59.429Z,24.63
2019-02-24T01:41:27.299Z,23.70
2019-02-24T01:43:55.263Z,22.30
2019-02-24T01:46:23.218Z,20.50
2019-02-24T01:48:51.186Z,18.92
2019-02-24T01:51:19.124Z,21.68
2019-02-24T01:53:47.081Z,21.07
2019-02-24T01:56:15.080Z,22.95
2019-02-24T01:58:43.070Z,24.82
2019-02-24T02:01:11.078Z,22.65
2019-02-24T02:03:39.211Z,20.02
2019-02-24T02:06:07.409Z,21.65
2019-02-24T02:08:35.374Z,17.85
2019-02-24T02:11:03.446Z,17.85
2019-02-24T02:13:31.492Z,18.15
2019-02-24T02:15:59.537Z,20.60
2019-02-24T02:18:27.624Z,16.62
2019-02-24T02:20:55.511Z,18.35
2019-02-24T02:23:23.520Z,16.85
2019-02-24T02:25:51.437Z,18.27
2019-02-24T02:28:19.432Z,18.02
2019-02-24T02:30:47.414Z,16.48
2019-02-24T02:33:16.681Z,22.42
2019-02-24T02:35:44.577Z,18.98
2019-02-24T02:38:12.527Z,17.77
2019-02-24T02:40:40.446Z,19.73
2019-02-24T02:43:10.181Z,24.20
2019-02-24T02:45:38.810Z,18.67
2019-02-24T02:48:06.778Z,17.87
2019-02-24T02:50:34.697Z,16.07
2019-02-24T02:53:02.711Z,17.35
2019-02-24T02:55:30.692Z,23.05
2019-02-24T02:57:58.626Z,20.65
2019-02-24T03:00:33.801Z,18.23
2019-02-24T03:03:01.733Z,21.48
2019-02-24T03:05:29.870Z,21.52
2019-02-24T03:08:16.045Z,22.62
2019-02-24T03:10:43.945Z,17.30
2019-02-24T03:13:11.849Z,16.35
2019-02-24T03:15:40.789Z,19.45
2019-02-24T03:18:08.757Z,13.95
2019-02-24T03:20:36.652Z,17.45
2019-02-24T03:23:05.054Z,17.23
2019-02-24T03:25:33.114Z,20.37
2019-02-24T03:28:01.104Z,18.42
2019-02-24T03:30:29.087Z,17.35
2019-02-24T03:32:57.017Z,15.98
2019-02-24T03:35:24.951Z,19.40
2019-02-24T03:37:52.902Z,19.80
2019-02-24T03:40:20.915Z,17.57
2019-02-24T03:42:48.830Z,18.90
2019-02-24T03:45:16.770Z,17.55
2019-02-24T03:47:44.663Z,18.87
2019-02-24T03:50:12.785Z,18.25
2019-02-24T03:52:40.705Z,23.12
2019-02-24T03:55:08.609Z,16.85
2019-02-24T03:57:36.642Z,17.30
2019-02-24T04:00:05.121Z,18.45
2019-02-24T04:02:33.118Z,17.07
2019-02-24T04:05:00.974Z,18.87
2019-02-24T04:07:28.858Z,16.80
2019-02-24T04:09:56.755Z,16.93
2019-02-24T04:12:25.094Z,15.90
2019-02-24T04:14:53.120Z,15.10
2019-02-24T04:17:21.057Z,15.08
2019-02-24T04:19:49.000Z,17.82
2019-02-24T04:22:16.966Z,18.90
2019-02-24T04:24:44.839Z,16.97
2019-02-24T04:27:12.805Z,20.75
2019-02-24T04:29:40.702Z,15.50
2019-02-24T04:32:08.708Z,17.25
2019-02-24T04:34:36.719Z,17.40
2019-02-24T04:37:04.651Z,14.20
2019-02-24T04:39:38.584Z,16.62
2019-02-24T04:42:25.990Z,15.63
2019-02-24T04:44:53.955Z,18.02
2019-02-24T04:47:21.835Z,16.48
2019-02-24T04:49:49.787Z,18.62
2019-02-24T04:52:17.720Z,15.45
2019-02-24T04:54:45.655Z,15.72
2019-02-24T04:57:14.763Z,16.40
2019-02-24T04:59:42.645Z,14.15
2019-02-24T05:02:10.571Z,13.10
2019-02-24T05:04:38.602Z,12.78
2019-02-24T05:07:06.601Z,12.15
2019-02-24T05:09:34.524Z,12.05
2019-02-24T05:12:02.422Z,12.58
2019-02-24T05:14:30.407Z,11.08
2019-02-24T05:16:58.345Z,11.83
2019-02-24T05:19:26.210Z,14.13
2019-02-24T05:21:54.118Z,13.13
2019-02-24T05:24:22.967Z,12.35
2019-02-24T05:26:50.863Z,9.78
2019-02-24T05:29:20.382Z,11.73
2019-02-24T05:31:48.588Z,9.15
2019-02-24T05:34:16.629Z,10.32
2019-02-24T05:36:45.654Z,8.93
2019-02-24T05:39:13.616Z,6.85
2019-02-24T05:41:42.426Z,10.78
2019-02-24T05:44:10.315Z,9.20
2019-02-24T05:46:38.227Z,10.08
2019-02-24T05:49:07.277Z,9.55
2019-02-24T05:51:35.196Z,11.22
2019-02-24T05:54:03.406Z,11.12
2019-02-24T05:56:31.451Z,14.73
2019-02-24T05:58:59.617Z,10.53
2019-02-24T06:01:27.573Z,9.00
2019-02-24T06:03:55.708Z,9.53
2019-02-24T06:06:23.624Z,10.63
2019-02-24T06:08:51.613Z,9.95
2019-02-24T06:11:19.609Z,14.93
2019-02-24T06:13:47.771Z,15.40
2019-02-24T06:16:16.006Z,17.32
2019-02-24T06:18:43.959Z,11.95
2019-02-24T06:21:11.911Z,10.10
2019-02-24T06:23:39.857Z,17.35
2019-02-24T06:26:07.737Z,13.70
2019-02-24T06:28:35.956Z,11.93
2019-02-24T06:31:03.810Z,10.98
2019-02-24T06:33:31.863Z,9.55
2019-02-24T06:35:59.821Z,8.30
2019-02-24T06:38:27.997Z,12.85
2019-02-24T06:40:56.024Z,11.35
2019-02-24T06:43:24.127Z,13.00
2019-02-24T06:45:52.218Z,10.48
2019-02-24T06:48:20.229Z,11.60
2019-02-24T06:50:54.969Z,11.25
2019-02-24T06:53:22.944Z,11.85
2019-02-24T06:55:51.030Z,9.85
2019-02-24T06:58:19.095Z,14.38
2019-02-24T07:00:47.004Z,12.82
2019-02-24T07:03:15.044Z,11.93
2019-02-24T07:05:43.078Z,14.38
2019-02-24T07:08:11.049Z,11.65
2019-02-24T07:10:39.084Z,11.43
2019-02-24T07:13:07.104Z,13.58
2019-02-24T07:15:35.018Z,11.65
2019-02-24T07:18:03.088Z,11.08
2019-02-24T07:20:31.068Z,9.70
2019-02-24T07:22:59.065Z,9.58
2019-02-24T07:25:27.051Z,13.55
2019-02-24T07:27:55.977Z,8.43
2019-02-24T07:30:25.311Z,10.95
2019-02-24T07:32:53.263Z,10.60
2019-02-24T07:35:21.372Z,11.10
2019-02-24T07:37:49.427Z,10.95
2019-02-24T07:40:17.459Z,11.95
2019-02-24T07:42:45.468Z,8.33
2019-02-24T07:45:13.528Z,8.98
2019-02-24T07:47:41.802Z,11.35
2019-02-24T07:50:10.019Z,9.33
2019-02-24T07:52:38.159Z,7.83
2019-02-24T07:55:06.229Z,8.63
2019-02-24T07:57:34.572Z,10.45
2019-02-24T08:00:02.721Z,8.18
2019-02-24T08:02:30.905Z,8.68
2019-02-24T08:04:58.794Z,8.63
2019-02-24T08:07:26.832Z,8.35
2019-02-24T08:09:54.927Z,9.15
2019-02-24T08:12:23.117Z,12.15
2019-02-24T08:14:52.266Z,10.32
2019-02-24T08:17:20.351Z,7.30
2019-02-24T08:19:49.129Z,8.88
2019-02-24T08:22:18.005Z,9.53
2019-02-24T08:24:46.173Z,8.78
2019-02-24T08:27:14.117Z,8.58
2019-02-24T08:29:42.256Z,10.15
2019-02-24T08:32:10.251Z,6.78
2019-02-24T08:34:40.521Z,8.05
2019-02-24T08:37:08.569Z,11.00
2019-02-24T08:39:36.573Z,8.05
2019-02-24T08:42:04.543Z,9.50
2019-02-24T08:44:32.583Z,9.83
2019-02-24T08:47:00.579Z,9.35
2019-02-24T08:49:28.810Z,11.20
2019-02-24T08:51:59.417Z,10.50
2019-02-24T08:54:27.454Z,8.98
2019-02-24T08:56:55.731Z,6.85
2019-02-24T08:59:23.773Z,8.35
2019-02-24T09:01:52.000Z,14.33
2019-02-24T09:04:19.988Z,8.43
2019-02-24T09:06:48.028Z,8.70
2019-02-24T09:09:16.110Z,11.45
2019-02-24T09:11:44.416Z,8.53
2019-02-24T09:14:12.433Z,6.95
2019-02-24T09:16:41.034Z,8.60
2019-02-24T09:19:09.044Z,8.05
2019-02-24T09:21:37.012Z,7.80
2019-02-24T09:24:05.162Z,7.42
2019-02-24T09:26:35.008Z,7.20
2019-02-24T09:29:03.032Z,8.18
2019-02-24T09:31:31.028Z,10.25
2019-02-24T09:33:59.711Z,9.65
2019-02-24T09:36:27.911Z,8.25
2019-02-24T09:38:56.758Z,8.58
2019-02-24T09:41:24.726Z,8.33
2019-02-24T09:43:52.754Z,8.75
2019-02-24T09:46:20.738Z,8.43
2019-02-24T09:48:48.742Z,9.63
2019-02-24T09:51:16.751Z,7.35
2019-02-24T09:53:45.835Z,7.45
2019-02-24T09:56:14.617Z,6.67
2019-02-24T09:58:42.749Z,9.40
2019-02-24T10:01:11.114Z,7.05
2019-02-24T10:03:39.186Z,5.08
2019-02-24T10:06:10.304Z,9.33
2019-02-24T10:08:38.569Z,7.42
2019-02-24T10:11:06.782Z,7.55
2019-02-24T10:13:35.040Z,6.75
2019-02-24T10:16:03.272Z,7.08
2019-02-24T10:18:31.338Z,8.70
2019-02-24T10:21:00.428Z,7.80
2019-02-24T10:23:28.496Z,9.23
2019-02-24T10:25:56.581Z,10.15
2019-02-24T10:28:24.597Z,6.05
2019-02-24T10:30:53.175Z,8.08
2019-02-24T10:33:21.417Z,9.03
2019-02-24T10:35:49.677Z,8.53
2019-02-24T10:38:18.816Z,6.85
2019-02-24T10:40:47.348Z,6.80
2019-02-24T10:43:15.628Z,7.35
2019-02-24T10:45:43.677Z,7.10
2019-02-24T10:48:14.212Z,5.70
2019-02-24T10:50:41.837Z,6.35
2019-02-24T10:53:10.098Z,6.10
2019-02-24T10:55:40.927Z,7.70
2019-02-24T10:58:08.985Z,6.75
2019-02-24T11:00:37.035Z,7.47
2019-02-24T11:03:05.269Z,6.78
2019-02-24T11:05:34.271Z,9.08
2019-02-24T11:08:02.740Z,5.70
2019-02-24T11:10:31.021Z,10.20
2019-02-24T11:12:59.190Z,7.95
2019-02-24T11:15:27.351Z,9.20
2019-02-24T11:17:55.542Z,7.22
2019-02-24T11:20:23.577Z,6.85
2019-02-24T11:22:51.731Z,4.95
2019-02-24T11:25:20.885Z,5.87
2019-02-24T11:27:48.832Z,5.60
2019-02-24T11:30:16.964Z,6.25
2019-02-24T11:32:45.092Z,5.87
2019-02-24T11:35:13.317Z,7.10
2019-02-24T11:37:41.491Z,7.90
2019-02-24T11:40:10.180Z,8.33
2019-02-24T11:42:38.344Z,7.08
2019-02-24T11:45:07.788Z,6.72
2019-02-24T11:47:35.824Z,5.80
2019-02-24T11:50:04.289Z,6.42
2019-02-24T11:52:32.479Z,7.87
2019-02-24T11:55:00.739Z,7.95
2019-02-24T11:57:28.912Z,6.15
2019-02-24T11:59:57.341Z,5.10
2019-02-24T12:02:33.936Z,6.28
2019-02-24T12:04:56.618Z,5.58
2019-02-24T12:07:24.765Z,7.65
2019-02-24T12:09:53.035Z,5.60
2019-02-24T12:12:22.005Z,11.55
2019-02-24T12:14:50.182Z,6.87
2019-02-24T12:17:27.374Z,8.95
2019-02-24T12:19:55.693Z,6.12
2019-02-24T12:22:23.793Z,6.25
2019-02-24T12:24:52.042Z,5.42
2019-02-24T12:27:20.263Z,7.15
2019-02-24T12:29:48.366Z,29.25
2019-02-24T12:32:16.557Z,11.40
2019-02-24T12:34:44.738Z,6.72
2019-02-24T12:37:14.025Z,7.75
2019-02-24T12:39:43.193Z,6.43
2019-02-24T12:42:11.322Z,6.75
2019-02-24T12:44:39.467Z,8.18
2019-02-24T12:47:08.549Z,8.03
2019-02-24T12:49:36.580Z,6.28
2019-02-24T12:52:04.952Z,6.93
2019-02-24T12:54:33.136Z,4.90
2019-02-24T12:57:01.810Z,5.93
2019-02-24T12:59:31.524Z,4.53
2019-02-24T13:02:05.784Z,7.10
2019-02-24T13:04:29.820Z,6.37
2019-02-24T13:06:57.908Z,7.83
2019-02-24T13:09:26.088Z,6.47
2019-02-24T13:11:54.520Z,6.23
2019-02-24T13:14:23.166Z,6.20
2019-02-24T13:16:54.376Z,7.13
2019-02-24T13:19:22.481Z,5.70
2019-02-24T13:21:50.720Z,7.85
2019-02-24T13:24:18.922Z,5.47
2019-02-24T13:26:46.838Z,6.17
2019-02-24T13:29:14.937Z,6.37
2019-02-24T13:31:43.929Z,5.27
2019-02-24T13:34:11.956Z,5.57
2019-02-24T13:36:40.264Z,5.30
2019-02-24T13:39:08.432Z,8.83
2019-02-24T13:41:37.251Z,5.97
2019-02-24T13:44:05.796Z,5.90
2019-02-24T13:46:34.315Z,5.77
2019-02-24T13:49:04.304Z,4.55
2019-02-24T13:51:33.808Z,5.27
2019-02-24T13:54:03.326Z,6.90
2019-02-24T13:56:31.377Z,6.10
2019-02-24T13:58:59.364Z,5.80
2019-02-24T14:01:27.433Z,5.07
2019-02-24T14:03:57.525Z,4.97
2019-02-24T14:06:26.845Z,5.70
2019-02-24T14:08:54.924Z,8.00
2019-02-24T14:11:23.087Z,5.40
2019-02-24T14:13:51.272Z,7.63
2019-02-24T14:16:19.572Z,5.53
2019-02-24T14:18:47.575Z,6.27
2019-02-24T14:21:15.743Z,5.80
2019-02-24T14:23:43.758Z,5.60
2019-02-24T14:26:11.855Z,6.77
2019-02-24T14:28:39.987Z,6.17
2019-02-24T14:31:08.691Z,5.83
2019-02-24T14:33:36.805Z,6.10
2019-02-24T14:36:04.777Z,4.57
2019-02-24T14:38:32.954Z,5.73
2019-02-24T14:41:00.943Z,7.37
2019-02-24T14:43:29.043Z,6.93
2019-02-24T14:45:57.147Z,7.23
2019-02-24T14:48:25.320Z,5.70
2019-02-24T14:50:53.464Z,5.40
2019-02-24T14:53:22.595Z,6.47
2019-02-24T14:55:50.630Z,6.10
2019-02-24T14:58:18.849Z,5.23
2019-02-24T15:00:46.913Z,5.27
2019-02-24T15:03:14.970Z,6.60
2019-02-24T15:05:43.100Z,7.63
2019-02-24T15:08:11.466Z,10.10
2019-02-24T15:10:39.777Z,7.23
2019-02-24T15:13:07.875Z,5.50
2019-02-24T15:15:36.443Z,4.77
2019-02-24T15:18:04.571Z,5.40
2019-02-24T15:20:32.785Z,7.70
2019-02-24T15:23:00.871Z,4.70
2019-02-24T15:25:28.963Z,6.47
2019-02-24T15:27:57.093Z,10.73
2019-02-24T15:30:29.094Z,7.90
2019-02-24T15:32:57.245Z,6.87
2019-02-24T15:35:25.577Z,7.13
2019-02-24T15:37:53.655Z,7.10
2019-02-24T15:40:21.651Z,16.10
2019-02-24T15:42:50.069Z,6.53
2019-02-24T15:45:18.100Z,21.57
2019-02-24T15:47:46.162Z,5.17
2019-02-24T15:50:14.336Z,6.87
2019-02-24T15:52:42.521Z,6.53
2019-02-24T15:55:10.731Z,6.80
2019-02-24T15:57:38.956Z,5.80
2019-02-24T16:00:11.146Z,5.77
2019-02-24T16:02:39.291Z,5.90
2019-02-24T16:05:07.761Z,5.83
2019-02-24T16:07:35.911Z,6.67
2019-02-24T16:10:06.299Z,9.20
2019-02-24T16:12:34.465Z,7.83
2019-02-24T16:15:07.687Z,9.07
2019-02-24T16:17:36.222Z,9.37
2019-02-24T16:20:04.761Z,8.40
2019-02-24T16:22:33.184Z,11.57
2019-02-24T16:25:02.319Z,10.63
2019-02-24T16:27:30.536Z,10.03
2019-02-24T16:29:59.829Z,10.80
2019-02-24T16:32:28.027Z,13.23
2019-02-24T16:34:56.109Z,14.63
2019-02-24T16:37:25.483Z,21.87
2019-02-24T16:39:53.544Z,18.30
2019-02-24T16:42:21.768Z,18.37
2019-02-24T16:44:50.140Z,19.90
2019-02-24T16:47:18.439Z,46.03
2019-02-24T16:49:46.660Z,47.07
2019-02-24T16:52:15.048Z,39.60
2019-02-24T16:54:52.353Z,37.70
2019-02-24T16:57:14.453Z,29.07
2019-02-24T16:59:42.602Z,24.60
2019-02-24T17:02:10.736Z,19.87
2019-02-24T17:04:38.792Z,19.70
2019-02-24T17:07:07.003Z,19.97
2019-02-24T17:09:35.195Z,19.50
2019-02-24T17:12:03.344Z,18.73
2019-02-24T17:14:31.668Z,18.95
2019-02-24T17:17:01.752Z,17.65
2019-02-24T17:19:29.921Z,13.18
2019-02-24T17:21:58.093Z,15.50
2019-02-24T17:24:26.255Z,12.00
2019-02-24T17:26:55.333Z,12.73
2019-02-24T17:29:24.629Z,8.93
2019-02-24T17:31:52.817Z,9.13
2019-02-24T17:34:22.557Z,10.65
2019-02-24T17:36:50.878Z,13.50
2019-02-24T17:39:19.070Z,13.60
2019-02-24T17:41:47.528Z,11.03
2019-02-24T17:44:15.581Z,10.90
2019-02-24T17:46:44.253Z,15.60
2019-02-24T17:49:12.535Z,13.75
2019-02-24T17:51:42.085Z,13.55
2019-02-24T17:54:10.427Z,13.10
2019-02-24T17:56:38.670Z,14.87
2019-02-24T17:59:07.009Z,10.75
2019-02-24T18:01:37.941Z,8.80
2019-02-24T18:04:06.029Z,9.18
2019-02-24T18:06:34.093Z,9.88
2019-02-24T18:09:02.463Z,8.45
2019-02-24T18:11:32.586Z,8.50
2019-02-24T18:14:00.874Z,8.80
2019-02-24T18:16:29.116Z,9.43
2019-02-24T18:18:57.606Z,12.13
2019-02-24T18:21:26.694Z,16.70
2019-02-24T18:23:55.237Z,17.87
2019-02-24T18:26:23.352Z,12.35
2019-02-24T18:28:51.582Z,11.20
2019-02-24T18:31:19.903Z,15.18
2019-02-24T18:33:48.665Z,15.98
2019-02-24T18:36:17.147Z,9.48
2019-02-24T18:38:45.545Z,13.62
2019-02-24T18:41:13.629Z,11.68
2019-02-24T18:43:42.021Z,12.33
2019-02-24T18:46:10.471Z,9.70
2019-02-24T18:48:38.770Z,12.10
2019-02-24T18:51:07.040Z,10.03
2019-02-24T18:53:36.835Z,13.48
2019-02-24T18:56:05.752Z,13.48
2019-02-24T18:58:34.520Z,10.08
2019-02-24T19:01:02.537Z,9.58
2019-02-24T19:03:30.752Z,8.30
2019-02-24T19:05:58.953Z,14.10
2019-02-24T19:08:27.649Z,24.57
2019-02-24T19:10:57.137Z,16.57
2019-02-24T19:13:25.605Z,12.85
2019-02-24T19:15:53.678Z,14.47
2019-02-24T19:18:21.949Z,20.08
2019-02-24T19:20:50.302Z,17.60
2019-02-24T19:23:18.446Z,17.10
2019-02-24T19:25:46.666Z,16.23
2019-02-24T19:28:16.194Z,19.70
2019-02-24T19:30:44.592Z,21.55
2019-02-24T19:33:12.837Z,21.00
2019-02-24T19:35:44.549Z,30.45
2019-02-24T19:38:12.773Z,19.50
2019-02-24T19:40:40.954Z,23.98
2019-02-24T19:43:10.278Z,20.20
2019-02-24T19:45:38.728Z,23.98
2019-02-24T19:48:07.238Z,18.00
2019-02-24T19:50:35.404Z,14.15
2019-02-24T19:53:03.456Z,19.57
2019-02-24T19:55:31.869Z,16.10
2019-02-24T19:58:00.210Z,14.45
2019-02-24T20:00:28.423Z,15.40
2019-02-24T20:02:56.583Z,18.73
2019-02-24T20:05:24.786Z,13.62
2019-02-24T20:07:53.052Z,12.03
2019-02-24T20:10:21.328Z,16.60
2019-02-24T20:12:49.487Z,24.60
2019-02-24T20:15:17.742Z,26.12
2019-02-24T20:17:46.143Z,21.17
2019-02-24T20:20:14.882Z,18.98
2019-02-24T20:22:43.138Z,15.65
2019-02-24T20:25:11.917Z,15.72
2019-02-24T20:27:41.299Z,14.07
2019-02-24T20:30:19.599Z,13.95
2019-02-24T20:32:49.630Z,12.93
2019-02-24T20:35:18.261Z,12.30
2019-02-24T20:37:46.546Z,17.00
2019-02-24T20:40:14.824Z,17.02
2019-02-24T20:42:43.143Z,15.55
2019-02-24T20:45:12.598Z,18.12
2019-02-24T20:47:40.672Z,14.95
2019-02-24T20:50:10.284Z,16.67
2019-02-24T20:52:39.469Z,13.72
2019-02-24T20:55:08.451Z,16.30
2019-02-24T20:57:37.168Z,13.75
2019-02-24T21:00:14.461Z,16.23
2019-02-24T21:02:42.519Z,15.18
2019-02-24T21:05:13.754Z,13.10
2019-02-24T21:07:42.324Z,19.60
2019-02-24T21:10:10.849Z,21.97
2019-02-24T21:12:39.245Z,17.40
2019-02-24T21:15:08.669Z,18.77
2019-02-24T21:17:37.121Z,17.42
2019-02-24T21:20:11.830Z,15.65
2019-02-24T21:22:40.175Z,13.35
2019-02-24T21:25:08.629Z,14.18
2019-02-24T21:27:37.282Z,14.93
2019-02-24T21:30:06.613Z,13.28
2019-02-24T21:32:34.955Z,16.77
2019-02-24T21:35:03.646Z,20.48
2019-02-24T21:37:31.914Z,16.00
2019-02-24T21:40:00.253Z,14.35
2019-02-24T21:42:28.508Z,17.50
2019-02-24T21:44:57.792Z,14.75
2019-02-24T21:47:25.960Z,14.80
2019-02-24T21:49:54.354Z,15.72
2019-02-24T21:52:22.870Z,16.57
2019-02-24T21:54:50.970Z,18.62
2019-02-24T21:57:19.174Z,21.25
2019-02-24T21:59:47.358Z,21.30
2019-02-24T22:02:15.605Z,17.50
2019-02-24T22:04:43.718Z,18.25
2019-02-24T22:07:11.812Z,18.67
2019-02-24T22:09:41.577Z,16.73
2019-02-24T22:12:09.623Z,17.23
2019-02-24T22:14:39.104Z,21.75
2019-02-24T22:17:07.167Z,32.35
2019-02-24T22:19:35.195Z,41.15
2019-02-24T22:22:03.239Z,28.85
2019-02-24T22:24:31.314Z,43.45
2019-02-24T22:26:59.936Z,44.93
2019-02-24T22:29:35.233Z,51.70
2019-02-24T22:32:03.201Z,50.67
2019-02-24T22:34:31.172Z,35.23
2019-02-24T22:36:59.651Z,36.77
2019-02-24T22:39:27.662Z,23.70
2019-02-24T22:41:55.712Z,25.88
2019-02-24T22:44:23.855Z,25.50
2019-02-24T22:46:51.933Z,26.23
2019-02-24T22:49:20.015Z,26.15
2019-02-24T22:51:49.250Z,28.23
2019-02-24T22:54:17.340Z,27.32
2019-02-24T22:56:45.459Z,28.05
2019-02-24T22:59:13.779Z,29.95
2019-02-24T23:01:42.917Z,27.32
2019-02-24T23:04:12.802Z,23.77
2019-02-24T23:06:41.082Z,23.20
2019-02-24T23:09:17.770Z,22.93
2019-02-24T23:11:46.029Z,22.25
2019-02-24T23:14:14.001Z,20.75
2019-02-24T23:16:42.080Z,18.85
2019-02-24T23:19:10.244Z,20.97
2019-02-24T23:21:38.224Z,23.47
2019-02-24T23:24:06.274Z,22.42
2019-02-24T23:26:34.446Z,29.82
2019-02-24T23:29:02.558Z,21.95
2019-02-24T23:31:30.765Z,19.80
2019-02-24T23:33:59.125Z,17.95
2019-02-24T23:36:27.347Z,25.72
2019-02-24T23:38:55.867Z,19.40
2019-02-24T23:41:23.869Z,20.75
2019-02-24T23:43:52.019Z,25.17
2019-02-24T23:46:20.152Z,19.70
2019-02-24T23:48:48.177Z,23.47
2019-02-24T23:51:16.225Z,20.45
2019-02-24T23:53:44.234Z,20.17
2019-02-24T23:56:12.210Z,22.50
2019-02-24T23:58:40.198Z,22.25
